New Harbor, ME

43° 52' 34"N, 69° 29' 40"W, Elevation 65 ft.
Eastern Time

Hourly observations for the last 72 hours

Date Time Temperature (°F) Humi-
dity

(%)
Wind
(mph)
Pressure Rain (in) Sun
(W/m2)
ET
(in)
Air Dew 6 Hour 1 Hr 3 Hr 6 Hr Day
Alt
(in)
Sea
Level

(mb)
Max Min
22 06:00 63.6 61.8 94 WSW 2 G 9 29.73 1006.9 0.02 0 0.002
22 05:00 63.2 61.1 93 SSW 4 G 13 29.71 1006.1 0.02 0.02 0 0.002
22 04:00 62.9 61.1 94 SSW 5 G 17 29.71 1006.2 0.02 0 0.002
22 03:00 62.6 61.1 95 S 8 G 17 29.74 1007.1 0.02 0.02 0 0.002
22 02:00 63.4 61.0 63.5 61.9 92 SSW 9 G 24 29.76 1007.8 0.00 0 0.001
22 01:00 63.1 60.7 92 SSW 7 G 16 29.78 1008.4 0.00 0 0.000
22 00:00 63.2 60.2 90 SSW 6 G 23 29.82 1009.8 0.00 0 0.059
21 23:00 62.7 59.4 89 SSW 7 G 21 29.84 1010.7 0.00 0 0.058
21 22:00 62.6 59.0 88 S 8 G 20 29.89 1012.1 0.00 0 0.057
21 21:00 62.5 58.6 87 S 7 G 20 29.91 1012.9 0.00 0 0.056
21 20:00 61.9 58.3 63.8 61.1 88 S 8 G 19 29.94 1013.9 0.00 0 0.055
21 19:00 61.4 57.5 87 S 8 G 17 29.97 1014.9 0.00 0 0.054
21 18:00 61.3 56.4 84 S 9 G 22 30.00 1015.8 0.00 9 0.053
21 17:00 61.8 56.6 83 S 6 G 16 30.04 1017.3 0.00 30 0.051
21 16:00 62.2 56.6 82 S 6 G 15 30.08 1018.5 0.00 104 0.046
21 15:00 63.0 57.8 83 S 6 G 14 30.10 1019.3 0.00 213 0.040
21 14:00 63.8 57.5 64.8 57.6 80 S 5 G 13 30.15 1021.1 0.00 255 0.030
21 13:00 62.0 56.8 83 SSE 5 G 11 30.18 1022.2 0.00 346 0.025
21 12:00 63.2 57.3 81 S 4 G 14 30.21 1023.0 0.00 480 0.015
21 11:00 63.8 57.2 79 SSE 2 G 13 30.24 1024.0 0.00 622 0.007
21 10:00 62.2 56.3 81 SSE 2 G 9 30.26 1024.7 0.00 248 0.003
21 09:00 59.5 54.0 82 S 2 G 9 30.29 1025.9 0.00 58 0.001
21 08:00 57.6 53.8 57.7 50.8 87 S 5 G 8 30.27 1025.1 0.00 42 0.000
21 07:00 53.6 52.8 97 S 0 G 2 30.29 1025.8 0.00 14 0.000
21 06:00 53.7 53.1 98 S 2 G 6 30.28 1025.4 0.00 0 0.000
21 05:00 53.2 52.6 98 S 2 G 3 30.27 1025.0 0.00 0 0.000
21 04:00 53.2 52.6 98 Calm 30.28 1025.4 0.00 0 0.000
21 03:00 52.4 51.9 98 Calm 30.27 1025.2 0.00 0 0.000
21 02:00 51.1 50.3 53.4 50.2 97 Calm 30.28 1025.6 0.00 0 0.000
21 01:00 51.3 50.5 97 Calm 30.29 1025.8 0.00 0 0.000
21 00:00 50.3 49.5 97 Calm 30.30 1026.1 0.00 0 0.056
20 23:00 50.5 49.7 97 SSE 0 G 1 30.29 1025.8 0.00 0 0.056
20 22:00 51.4 50.3 96 Calm 30.28 1025.5 0.00 0 0.056
20 21:00 51.9 50.8 96 Calm 30.29 1025.8 0.00 0 0.056
20 20:00 53.3 51.6 60.5 53.2 94 SSE 0 G 1 30.28 1025.4 0.00 0 0.056
20 19:00 54.3 51.7 91 S 0 G 3 30.25 1024.6 0.00 0 0.056
20 18:00 56.9 52.8 86 S 0 G 5 30.25 1024.4 0.00 40 0.054
20 17:00 57.5 53.0 85 SE 0 G 2 30.24 1024.1 0.00 144 0.051
20 16:00 58.8 53.0 81 NNE 0 G 2 30.25 1024.3 0.00 153 0.046
20 15:00 58.6 52.5 80 SSW 2 G 4 30.25 1024.3 0.00 663 0.040
20 14:00 58.6 53.1 60.5 55.0 82 S 1 G 4 30.24 1024.1 0.00 320 0.033
20 13:00 60.4 54.5 81 E 1 G 5 30.25 1024.4 0.00 359 0.026
20 12:00 58.6 54.1 85 ENE 4 G 11 30.27 1025.1 0.00 592 0.015
20 11:00 56.4 51.3 83 ENE 6 G 12 30.26 1024.8 0.00 401 0.008
20 10:00 57.2 53.4 87 ENE 3 G 7 30.26 1024.9 0.00 387 0.004
20 09:00 55.5 52.0 88 ENE 2 G 9 30.24 1024.1 0.00 146 0.001
20 08:00 55.0 52.1 55.5 54.1 90 NE 2 G 9 30.21 1023.1 0.00 90 0.000
20 07:00 54.2 52.2 93 NE 0 G 2 30.19 1022.3 0.00 18 0.000
20 06:00 54.4 51.5 90 ENE 4 G 7 30.17 1021.6 0.00 0 0.000
20 05:00 54.4 52.4 93 ENE 2 G 4 30.16 1021.3 0.00 0 0.000
20 04:00 54.6 52.9 94 NE 3 G 7 30.14 1020.8 0.00 0 0.000
20 03:00 55.1 53.7 95 ENE 2 G 8 30.13 1020.3 0.00 0 0.000
20 02:00 55.5 54.4 58.0 55.5 96 ENE 2 G 10 30.13 1020.2 0.00 0 0.000
20 01:00 55.8 55.0 97 ENE 3 G 7 30.12 1019.9 0.00 0 0.000
20 00:00 57.0 55.0 93 NE 2 G 9 30.11 1019.6 0.01 0 0.056
19 23:00 56.9 54.9 93 ENE 3 G 7 30.09 1019.2 0.01 0 0.056
19 22:00 57.1 54.8 92 ENE 2 G 4 30.08 1018.7 0.01 0 0.056
19 21:00 57.4 54.8 91 ENE 2 G 5 30.08 1018.6 0.01 0 0.056
19 20:00 58.0 55.1 62.2 57.9 90 NE 2 G 5 30.06 1017.9 0.01 0 0.055
19 19:00 58.9 55.0 87 NE 3 G 8 30.03 1016.9 0.01 0 0.055
19 18:00 60.0 55.8 86 NE 1 G 7 30.02 1016.5 0.01 28 0.054
19 17:00 60.4 55.2 83 NE 4 G 9 29.98 1015.3 0.01 88 0.051
19 16:00 61.3 56.1 83 NE 2 G 8 29.97 1014.8 0.01 234 0.047
19 15:00 60.5 56.0 85 ENE 5 G 12 29.97 1014.8 0.01 176 0.042
19 14:00 61.9 56.0 62.5 55.3 81 NE 4 G 11 29.96 1014.5 0.01 352 0.033
19 13:00 61.7 56.5 83 NE 4 G 10 29.96 1014.7 0.01 696 0.024
19 12:00 61.1 56.9 86 ENE 3 G 12 29.96 1014.5 0.01 888 0.014
19 11:00 58.1 54.6 88 NE 5 G 11 29.96 1014.5 0.01 114 0.009
19 10:00 57.5 54.9 91 NE 3 G 9 29.94 1014.0 0.01 176 0.004
19 09:00 56.2 54.5 94 NE 2 G 9 29.92 1013.3 0.01 188 0.001
19 08:00 55.3 54.2 57.4 54.8 96 ENE 3 G 8 29.92 1013.1 0.01 0.01 74 0.000
19 07:00 54.9 54.1 97 NE 3 G 9 29.89 1012.1 0.01 35 0.000

Data generated by WxSolution Version 1.9.1.5, Build 2018.05.20.